Time;durP1;ratioP1;P1;durP2;ratioP2;P2;SDS_P1;SDS_P2;PMS_P1;PMS_P2;Temp;Humidity;BMP_temperature;BMP_pressure;BME280_temperature;BME280_humidity;BME280_pressure;Samples;Min_cycle;Max_cycle;Signal;HPM_P1;HPM_P2
2022/04/17 00:00:38;;;;;;;1.10;1.10;;;;;;;7.83;46.60;99840.50;4118667;28;20207;-52
2022/04/17 00:02:40;;;;;;;1.08;1.02;;;;;;;7.84;46.68;99852.25;4112018;28;20600;-54
2022/04/17 00:04:42;;;;;;;1.30;1.20;;;;;;;7.80;46.74;99856.41;4119101;28;20229;-53
2022/04/17 00:06:44;;;;;;;1.10;1.10;;;;;;;7.78;46.92;99851.19;4121392;28;20564;-53
2022/04/17 00:08:45;;;;;;;2.03;1.90;;;;;;;7.76;47.48;99849.69;4109386;28;20226;-54
2022/04/17 00:10:47;;;;;;;3.63;1.10;;;;;;;7.77;46.97;99848.66;4104803;28;20700;-53
2022/04/17 00:12:49;;;;;;;1.33;1.20;;;;;;;7.79;46.84;99861.03;4119304;28;20261;-55
2022/04/17 00:14:51;;;;;;;0.93;0.93;;;;;;;7.72;46.99;99856.56;4121200;28;20226;-53
2022/04/17 00:16:54;;;;;;;1.20;1.20;;;;;;;7.69;46.45;99848.81;4108754;28;20230;-53
2022/04/17 00:18:56;;;;;;;1.40;1.30;;;;;;;7.66;47.19;99854.63;4108423;28;20210;-55
2022/04/17 00:20:58;;;;;;;1.17;1.17;;;;;;;7.65;46.88;99848.38;4105637;28;20211;-56
2022/04/17 00:23:02;;;;;;;1.23;1.13;;;;;;;7.64;46.74;99848.56;4134118;28;20600;-53
2022/04/17 00:25:07;;;;;;;1.10;1.10;;;;;;;7.67;47.17;99850.88;4110417;28;20231;-54
2022/04/17 00:27:09;;;;;;;1.17;1.17;;;;;;;7.63;47.55;99852.31;4106487;28;20207;-54
2022/04/17 00:29:10;;;;;;;0.90;0.90;;;;;;;7.58;47.20;99852.94;4102489;28;20701;-54
2022/04/17 00:31:12;;;;;;;1.35;1.25;;;;;;;7.55;47.34;99847.03;4106476;28;20230;-54
2022/04/17 00:33:14;;;;;;;1.27;1.17;;;;;;;7.54;47.50;99839.88;4104890;28;20238;-55
2022/04/17 00:35:16;;;;;;;0.93;0.93;;;;;;;7.48;47.90;99836.06;4105692;28;20321;-53
2022/04/17 00:37:17;;;;;;;1.00;1.00;;;;;;;7.43;48.07;99829.56;4109461;28;20203;-55
2022/04/17 00:39:19;;;;;;;0.90;0.90;;;;;;;7.37;48.49;99830.34;4117473;28;20268;-54
2022/04/17 00:41:21;;;;;;;1.30;1.30;;;;;;;7.32;48.62;99830.06;4105688;28;20199;-53
2022/04/17 00:43:30;;;;;;;1.30;1.00;;;;;;;7.25;48.04;99824.59;4119343;28;20198;-53
2022/04/17 00:45:31;;;;;;;1.20;1.20;;;;;;;7.27;48.53;99816.22;4119975;28;20230;-55
2022/04/17 00:47:33;;;;;;;1.15;1.05;;;;;;;7.21;48.19;99809.69;4102437;28;20252;-54
2022/04/17 00:49:35;;;;;;;0.98;0.98;;;;;;;7.18;48.68;99817.41;4105519;28;20218;-53
2022/04/17 00:51:37;;;;;;;1.60;1.52;;;;;;;7.18;48.95;99811.97;4103206;28;20696;-54
2022/04/17 00:53:39;;;;;;;1.17;1.08;;;;;;;7.15;48.51;99817.81;4100150;28;20278;-55
2022/04/17 00:55:41;;;;;;;1.00;1.00;;;;;;;7.14;48.38;99816.94;4107890;28;20226;-54
2022/04/17 00:57:43;;;;;;;1.23;1.23;;;;;;;7.08;48.93;99816.91;4118586;28;20211;-54
2022/04/17 00:59:45;;;;;;;1.10;1.10;;;;;;;7.15;47.97;99812.38;4116771;28;20214;-53
2022/04/17 01:01:48;;;;;;;1.10;1.10;;;;;;;7.08;48.66;99803.31;4103120;28;20211;-53
2022/04/17 01:03:50;;;;;;;1.10;1.10;;;;;;;7.05;48.88;99812.69;4102645;28;20221;-53
2022/04/17 01:05:52;;;;;;;1.20;1.10;;;;;;;7.03;48.90;99811.22;4102259;28;20293;-54
2022/04/17 01:07:54;;;;;;;1.10;1.10;;;;;;;7.02;49.00;99807.63;4107806;28;20211;-53
2022/04/17 01:09:55;;;;;;;1.38;1.38;;;;;;;6.88;49.00;99811.28;4119878;28;20697;-53
2022/04/17 01:11:57;;;;;;;1.08;1.08;;;;;;;6.86;49.49;99807.06;4104398;28;20215;-55
2022/04/17 01:13:59;;;;;;;1.15;1.15;;;;;;;6.87;49.09;99809.59;4111144;28;20225;-54
2022/04/17 01:16:05;;;;;;;1.75;1.65;;;;;;;6.82;49.42;99800.34;4105655;28;21354;-54
2022/04/17 01:18:07;;;;;;;1.00;1.00;;;;;;;6.79;49.55;99806.16;4115249;28;20194;-54
2022/04/17 01:20:10;;;;;;;1.00;1.00;;;;;;;6.77;49.35;99808.25;4116696;28;20235;-54
2022/04/17 01:22:12;;;;;;;1.20;1.20;;;;;;;6.75;49.81;99799.44;4103116;28;20309;-55
2022/04/17 01:28:55;;;;;;;1.55;1.45;;;;;;;6.61;50.14;99794.88;4104013;28;20234;-54
2022/04/17 01:30:56;;;;;;;1.52;1.42;;;;;;;6.59;50.34;99796.94;4091813;28;20214;-55
2022/04/17 01:32:58;;;;;;;1.25;1.23;;;;;;;6.58;50.14;99792.56;4119405;28;20261;-53
2022/04/17 01:35:00;;;;;;;3.58;1.38;;;;;;;6.57;50.94;99793.59;4101594;28;20290;-54
2022/04/17 01:37:03;;;;;;;1.55;1.45;;;;;;;6.50;50.88;99788.06;4106047;28;20207;-55
2022/04/17 01:39:04;;;;;;;1.30;1.25;;;;;;;6.47;51.07;99776.75;4105372;28;20218;-54
2022/04/17 01:41:06;;;;;;;1.42;1.33;;;;;;;6.45;51.44;99781.53;4102177;28;20215;-55
2022/04/17 01:43:08;;;;;;;1.27;1.27;;;;;;;6.44;51.24;99788.00;4103848;28;20211;-54
2022/04/17 01:45:10;;;;;;;1.10;1.10;;;;;;;6.41;51.53;99788.38;4100526;28;20548;-54
2022/04/17 01:47:12;;;;;;;1.55;1.30;;;;;;;6.37;51.87;99784.38;4116372;28;20222;-55
2022/04/17 01:49:15;;;;;;;1.15;1.15;;;;;;;6.31;51.75;99793.31;4114466;28;20258;-53
2022/04/17 01:51:17;;;;;;;1.42;1.33;;;;;;;6.29;51.74;99792.66;4118860;28;20209;-54
2022/04/17 01:53:19;;;;;;;1.30;1.30;;;;;;;6.25;51.73;99791.34;4101805;28;20207;-54
2022/04/17 01:55:20;;;;;;;1.17;1.17;;;;;;;6.23;51.87;99790.72;4136249;28;20280;-54
2022/04/17 01:57:22;;;;;;;1.00;1.00;;;;;;;6.17;51.55;99783.31;4105400;28;20397;-54
2022/04/17 01:59:24;;;;;;;1.30;1.30;;;;;;;6.18;51.75;99785.84;4118442;28;20273;-53
2022/04/17 02:01:25;;;;;;;1.10;1.02;;;;;;;6.11;51.87;99781.34;4102415;28;20215;-53
2022/04/17 02:03:27;;;;;;;1.38;1.30;;;;;;;6.07;52.00;99766.47;4112105;28;20636;-54
2022/04/17 02:05:29;;;;;;;1.05;1.05;;;;;;;6.03;52.20;99766.00;4099314;28;20226;-53
2022/04/17 02:07:30;;;;;;;1.20;1.20;;;;;;;6.00;52.38;99765.53;4103617;28;20755;-55
2022/04/17 02:09:33;;;;;;;1.20;1.20;;;;;;;5.95;52.52;99762.56;4106666;28;20222;-53
2022/04/17 02:11:36;;;;;;;1.42;1.33;;;;;;;5.91;52.74;99762.13;4104040;28;20207;-53
2022/04/17 02:13:38;;;;;;;0.90;0.90;;;;;;;5.90;52.78;99770.44;4102241;28;20340;-54
2022/04/17 02:15:40;;;;;;;1.75;1.65;;;;;;;5.87;52.66;99762.66;4106707;28;20991;-53
2022/04/17 02:17:42;;;;;;;1.23;1.23;;;;;;;5.82;53.00;99773.28;4107247;28;20244;-54
2022/04/17 02:19:44;;;;;;;1.38;1.27;;;;;;;5.78;53.26;99769.19;4103859;28;20577;-57
2022/04/17 02:21:45;;;;;;;1.98;1.80;;;;;;;5.75;53.31;99764.16;4087359;28;20215;-54
2022/04/17 02:23:47;;;;;;;1.42;1.33;;;;;;;5.71;52.98;99771.00;4102984;28;20221;-55
2022/04/17 02:25:49;;;;;;;1.42;1.42;;;;;;;5.67;53.21;99764.25;4104669;28;20258;-55
2022/04/17 02:27:51;;;;;;;1.08;1.08;;;;;;;5.67;53.23;99772.38;4117048;28;21211;-55
2022/04/17 02:29:52;;;;;;;1.40;1.40;;;;;;;5.49;53.40;99756.47;4118427;28;20246;-53
2022/04/17 02:31:57;;;;;;;1.35;1.33;;;;;;;5.42;53.92;99757.44;4107096;28;20198;-55
2022/04/17 02:33:59;;;;;;;1.60;1.50;;;;;;;5.49;53.72;99761.91;4103542;28;20235;-53
2022/04/17 02:36:01;;;;;;;1.27;1.17;;;;;;;5.50;53.87;99768.19;4117395;28;20636;-54
2022/04/17 02:38:03;;;;;;;1.35;1.33;;;;;;;5.35;53.79;99761.94;4101817;28;20621;-53
2022/04/17 02:40:05;;;;;;;1.35;1.33;;;;;;;5.37;54.20;99757.16;4105702;28;20624;-54
2022/04/17 02:42:07;;;;;;;6.47;2.17;;;;;;;5.34;54.19;99757.50;4119552;28;20236;-54
2022/04/17 02:44:08;;;;;;;1.15;1.15;;;;;;;5.28;54.39;99755.53;4103257;28;20235;-54
2022/04/17 02:46:10;;;;;;;1.20;1.20;;;;;;;5.37;54.02;99762.56;4116794;28;20526;-55
2022/04/17 02:48:13;;;;;;;0.98;0.98;;;;;;;5.42;53.88;99754.72;4101353;28;20243;-54
2022/04/17 02:50:16;;;;;;;1.58;1.40;;;;;;;5.46;53.85;99746.00;4100817;28;20255;-55
2022/04/17 02:52:18;;;;;;;1.80;1.70;;;;;;;5.51;53.82;99743.59;4102847;28;20210;-54
2022/04/17 02:54:19;;;;;;;1.00;1.00;;;;;;;5.57;53.94;99741.97;4102209;28;20241;-55
2022/04/17 02:56:21;;;;;;;1.42;1.27;;;;;;;5.57;54.15;99741.97;4115644;28;21520;-53
2022/04/17 02:58:23;;;;;;;1.23;1.23;;;;;;;5.45;54.05;99732.63;4102920;28;20661;-54
2022/04/17 03:00:26;;;;;;;1.10;1.10;;;;;;;5.45;54.50;99733.47;4117489;28;20306;-55
2022/04/17 03:07:09;;;;;;;1.25;1.25;;;;;;;5.55;54.40;99725.06;4102804;28;20645;-53
2022/04/17 03:09:12;;;;;;;1.45;1.30;;;;;;;5.52;54.28;99723.56;4118689;28;20230;-54
2022/04/17 03:11:14;;;;;;;1.38;1.27;;;;;;;5.51;54.66;99727.31;4098469;28;20211;-55
2022/04/17 03:13:15;;;;;;;1.27;1.17;;;;;;;5.50;54.50;99719.34;4116318;28;20210;-53
2022/04/17 03:15:17;;;;;;;1.10;1.10;;;;;;;5.46;54.74;99723.44;4100737;28;20238;-54
2022/04/17 03:17:19;;;;;;;1.10;1.10;;;;;;;5.47;54.55;99722.41;4102854;28;20207;-53
2022/04/17 03:19:21;;;;;;;1.40;1.30;;;;;;;5.50;54.42;99713.91;4086245;28;20844;-55
2022/04/17 03:21:22;;;;;;;1.00;1.00;;;;;;;5.48;54.73;99716.81;4101757;28;20243;-54
2022/04/17 03:23:24;;;;;;;1.50;1.45;;;;;;;5.41;54.68;99710.44;4103666;28;20950;-53
2022/04/17 03:25:26;;;;;;;1.42;1.33;;;;;;;5.43;54.69;99707.56;4103545;28;20308;-53
2022/04/17 03:27:31;;;;;;;1.20;1.10;;;;;;;5.37;54.70;99714.56;4104310;28;20210;-54
2022/04/17 03:29:32;;;;;;;1.67;1.65;;;;;;;5.24;54.79;99722.50;4101448;28;20916;-53
2022/04/17 03:31:34;;;;;;;1.30;1.30;;;;;;;5.21;54.98;99719.31;4100690;28;20203;-53
2022/04/17 03:33:36;;;;;;;1.48;1.38;;;;;;;5.25;54.84;99720.66;4101883;28;20212;-54
2022/04/17 03:35:39;;;;;;;1.13;1.13;;;;;;;5.13;55.11;99716.72;4103166;28;20250;-54
2022/04/17 03:37:44;;;;;;;0.98;0.98;;;;;;;4.97;55.44;99708.75;4090174;28;20251;-53
2022/04/17 03:39:48;;;;;;;1.25;1.25;;;;;;;5.03;55.15;99716.97;4118471;28;20221;-55
2022/04/17 03:41:50;;;;;;;1.30;1.30;;;;;;;4.62;56.45;99716.72;4102547;28;20215;-54
2022/04/17 03:43:52;;;;;;;1.38;1.38;;;;;;;4.68;56.43;99719.53;4101435;28;20211;-52
2022/04/17 03:45:53;;;;;;;1.67;1.40;;;;;;;4.76;56.24;99715.91;4102018;28;20839;-52
2022/04/17 03:47:55;;;;;;;1.15;1.08;;;;;;;4.46;57.15;99712.28;4105212;28;20210;-55
2022/04/17 03:49:57;;;;;;;1.48;1.38;;;;;;;4.40;57.68;99718.41;4116497;28;20226;-54
2022/04/17 03:52:00;;;;;;;1.70;1.60;;;;;;;4.18;58.22;99713.84;4117036;28;20230;-54
2022/04/17 03:54:02;;;;;;;1.35;1.35;;;;;;;4.01;58.14;99716.88;4103659;28;20632;-56
2022/04/17 03:56:04;;;;;;;1.48;1.38;;;;;;;4.14;57.77;99709.81;4102902;28;20211;-54
2022/04/17 03:58:05;;;;;;;1.30;1.27;;;;;;;4.21;58.21;99713.47;4117754;28;20214;-55
2022/04/17 04:00:10;;;;;;;1.48;1.38;;;;;;;4.21;57.74;99713.47;4111078;28;20206;-56
2022/04/17 04:02:12;;;;;;;1.27;1.17;;;;;;;4.25;57.43;99713.97;4071400;28;20242;-55
2022/04/17 04:04:15;;;;;;;1.67;1.58;;;;;;;4.39;57.16;99703.19;4085010;28;20232;-53
2022/04/17 04:06:16;;;;;;;1.27;1.27;;;;;;;4.40;57.54;99701.34;4097917;28;20218;-55
2022/04/17 04:08:18;;;;;;;1.85;1.40;;;;;;;4.13;58.17;99700.00;4090402;29;20207;-54
2022/04/17 04:10:20;;;;;;;1.25;1.25;;;;;;;4.09;58.32;99698.69;4100366;28;20321;-54
2022/04/17 04:12:22;;;;;;;1.27;1.27;;;;;;;4.21;57.96;99699.94;4096685;28;21299;-55
2022/04/17 04:14:29;;;;;;;1.40;1.40;;;;;;;4.23;58.04;99699.78;4086886;28;20258;-54
2022/04/17 04:16:31;;;;;;;2.05;1.95;;;;;;;4.27;57.60;99699.22;4085362;28;20645;-54
2022/04/17 04:18:32;;;;;;;1.25;1.25;;;;;;;4.20;57.93;99695.56;4119284;28;20230;-56
2022/04/17 04:20:34;;;;;;;5.28;2.00;;;;;;;4.33;57.98;99697.69;4092267;28;20302;-54
2022/04/17 04:22:36;;;;;;;1.35;1.35;;;;;;;4.36;57.57;99690.03;4085953;29;20266;-54
2022/04/17 04:24:37;;;;;;;1.15;1.15;;;;;;;4.35;57.45;99691.03;4088317;28;20236;-52
2022/04/17 04:26:41;;;;;;;1.40;1.30;;;;;;;4.52;57.48;99683.59;4089068;28;20575;-52
2022/04/17 04:28:43;;;;;;;1.50;1.40;;;;;;;4.39;57.83;99689.66;4118695;28;20898;-55
2022/04/17 04:30:45;;;;;;;1.48;1.48;;;;;;;4.44;57.79;99694.50;4102640;28;20640;-56
2022/04/17 04:32:52;;;;;;;1.45;1.40;;;;;;;4.30;57.77;99685.34;4102055;28;20212;-54
2022/04/17 04:35:00;;;;;;;1.20;1.20;;;;;;;4.36;57.33;99695.44;4095199;28;20227;-55
2022/04/17 04:37:02;;;;;;;1.02;1.02;;;;;;;4.45;57.64;99693.47;4118358;28;20261;-56
2022/04/17 04:39:03;;;;;;;1.17;1.17;;;;;;;4.28;57.79;99692.78;4086505;29;20253;-55
2022/04/17 04:41:05;;;;;;;1.33;1.33;;;;;;;4.15;58.13;99692.53;4085907;28;20223;-52
2022/04/17 04:43:07;;;;;;;1.30;1.30;;;;;;;4.18;58.52;99697.59;4103152;28;20215;-53
2022/04/17 04:47:29;;;;;;;1.20;1.17;;;;;;;3.79;59.16;99702.28;4088397;28;20295;-53
2022/04/17 04:49:31;;;;;;;1.67;1.52;;;;;;;3.86;59.11;99697.81;4088216;28;20255;-54
2022/04/17 04:51:34;;;;;;;1.88;1.45;;;;;;;3.90;58.86;99704.59;4101173;28;20297;-53
2022/04/17 04:53:36;;;;;;;1.52;1.48;;;;;;;3.98;59.20;99691.00;4100634;28;20658;-54
2022/04/17 04:55:37;;;;;;;1.25;1.05;;;;;;;3.83;59.13;99697.34;4100838;28;20230;-55
2022/04/17 04:57:41;;;;;;;1.38;1.38;;;;;;;3.94;59.46;99694.22;4116755;28;20205;-53
2022/04/17 04:59:43;;;;;;;1.75;1.65;;;;;;;4.07;58.89;99695.31;4115335;28;20600;-55
2022/04/17 05:01:45;;;;;;;1.67;1.58;;;;;;;4.04;58.75;99700.25;4086151;28;20212;-55
2022/04/17 05:03:52;;;;;;;1.33;1.33;;;;;;;3.94;58.71;99705.88;4114455;28;20354;-53
2022/04/17 05:05:54;;;;;;;1.70;1.60;;;;;;;3.97;58.95;99694.72;4104055;28;20737;-55
2022/04/17 05:07:57;;;;;;;2.17;2.08;;;;;;;4.01;58.93;99704.16;4087727;28;20682;-54
2022/04/17 05:10:00;;;;;;;1.23;1.13;;;;;;;4.11;58.95;99701.22;4091632;28;20344;-55
2022/04/17 05:12:01;;;;;;;1.33;1.30;;;;;;;4.09;58.63;99709.53;4084890;28;20208;-56
2022/04/17 05:14:04;;;;;;;1.50;1.40;;;;;;;4.16;58.40;99705.09;4092047;28;20215;-53
2022/04/17 05:16:06;;;;;;;1.50;1.40;;;;;;;4.18;58.38;99703.03;4093666;28;20214;-54
2022/04/17 05:18:08;;;;;;;1.02;1.02;;;;;;;4.31;58.50;99713.25;4103803;28;20218;-54
2022/04/17 05:20:10;;;;;;;1.52;1.52;;;;;;;4.43;58.18;99712.66;4100970;28;20578;-54
2022/04/17 05:22:16;;;;;;;1.55;1.45;;;;;;;4.50;57.61;99719.03;4087301;28;20345;-55
2022/04/17 05:24:18;;;;;;;1.40;1.40;;;;;;;4.57;57.56;99706.44;4090640;28;20756;-53
2022/04/17 05:26:20;;;;;;;1.10;1.10;;;;;;;4.66;57.76;99701.78;4084979;28;20262;-54
2022/04/17 05:28:22;;;;;;;1.00;1.00;;;;;;;4.78;58.00;99701.16;4085397;28;20228;-54
2022/04/17 05:30:23;;;;;;;1.50;1.42;;;;;;;4.98;57.46;99710.44;4089642;28;20360;-54
2022/04/17 05:32:25;;;;;;;1.60;1.55;;;;;;;4.85;57.71;99707.50;4116490;28;20199;-54
2022/04/17 05:34:27;;;;;;;1.00;1.00;;;;;;;4.99;57.54;99709.41;4085832;28;22710;-54
2022/04/17 05:36:29;;;;;;;1.98;1.55;;;;;;;5.23;57.09;99717.28;4087117;28;20207;-55
2022/04/17 05:38:31;;;;;;;1.80;1.70;;;;;;;5.34;56.77;99714.09;4116204;28;20242;-54
2022/04/17 05:40:44;;;;;;;1.15;1.15;;;;;;;5.60;56.36;99728.00;4071421;29;20216;-54
2022/04/17 05:42:48;;;;;;;1.25;1.25;;;;;;;5.79;55.56;99730.16;4089668;29;20203;-53
2022/04/17 05:44:51;;;;;;;1.30;1.30;;;;;;;5.95;55.40;99730.81;4086382;28;20230;-55
2022/04/17 05:46:55;;;;;;;1.45;1.45;;;;;;;5.75;54.81;99718.00;4086918;28;20563;-54
2022/04/17 05:48:57;;;;;;;1.73;1.63;;;;;;;5.86;55.02;99725.66;4116040;28;20207;-53
2022/04/17 05:51:00;;;;;;;1.38;1.33;;;;;;;6.10;54.28;99728.06;4087961;28;20235;-54
2022/04/17 05:53:02;;;;;;;1.00;1.00;;;;;;;6.27;54.65;99735.78;4089177;28;20210;-56
2022/04/17 05:55:04;;;;;;;1.30;1.20;;;;;;;5.89;54.58;99728.03;4086285;28;20231;-53
2022/04/17 05:57:06;;;;;;;1.30;1.20;;;;;;;6.06;54.42;99724.03;4084999;28;20773;-56
2022/04/17 05:59:08;;;;;;;2.20;1.20;;;;;;;6.25;54.58;99726.13;4098611;28;20592;-55
2022/04/17 06:01:11;;;;;;;1.55;1.45;;;;;;;6.26;54.27;99730.53;4088297;28;20225;-53
2022/04/17 06:03:15;;;;;;;1.63;1.52;;;;;;;6.56;54.73;99734.81;4091213;28;20684;-53
2022/04/17 06:05:17;;;;;;;1.55;1.45;;;;;;;6.53;54.76;99727.03;4090179;28;20231;-53
2022/04/17 06:07:26;;;;;;;1.42;1.30;;;;;;;7.12;54.39;99731.09;4085840;28;20862;-54
2022/04/17 06:09:28;;;;;;;1.17;1.17;;;;;;;7.27;53.96;99729.09;4116304;28;20210;-53
2022/04/17 06:11:30;;;;;;;2.28;1.48;;;;;;;7.61;53.17;99727.22;4089015;28;20278;-53
2022/04/17 06:13:32;;;;;;;1.50;1.50;;;;;;;7.73;53.18;99719.31;4088157;28;20278;-55
2022/04/17 06:15:34;;;;;;;1.50;1.40;;;;;;;7.79;52.29;99718.50;4104743;28;20324;-53
2022/04/17 06:17:40;;;;;;;1.35;1.30;;;;;;;7.89;52.14;99721.69;4087909;29;20212;-53
2022/04/17 06:19:43;;;;;;;1.20;1.20;;;;;;;7.90;52.32;99720.66;4086786;29;20294;-54
2022/04/17 06:21:45;;;;;;;1.40;1.30;;;;;;;8.10;51.62;99714.22;4116774;28;20249;-53
2022/04/17 06:23:46;;;;;;;1.00;1.00;;;;;;;8.40;51.19;99723.78;4099851;28;20203;-54
2022/04/17 06:25:48;;;;;;;2.25;2.15;;;;;;;8.55;51.25;99718.13;4115290;28;20321;-53
2022/04/17 06:27:50;;;;;;;1.15;1.15;;;;;;;8.28;50.67;99716.41;4090697;29;20200;-55
2022/04/17 06:29:52;;;;;;;1.60;1.50;;;;;;;8.33;50.92;99722.06;4084946;29;20236;-53
2022/04/17 06:31:53;;;;;;;1.88;1.35;;;;;;;7.84;50.06;99724.19;4116980;28;20224;-54
2022/04/17 06:33:55;;;;;;;1.67;1.50;;;;;;;8.03;51.90;99720.69;4083720;28;20322;-53
2022/04/17 06:36:00;;;;;;;1.58;1.48;;;;;;;8.08;50.62;99723.66;4088409;29;20216;-53
2022/04/17 06:38:02;;;;;;;1.50;1.40;;;;;;;8.11;50.46;99720.50;4086537;29;20200;-54
2022/04/17 06:40:05;;;;;;;1.40;1.30;;;;;;;7.89;50.72;99721.69;4117863;28;20209;-53
2022/04/17 06:42:06;;;;;;;1.33;1.23;;;;;;;7.86;50.53;99724.81;4099452;28;20210;-55
2022/04/17 06:44:11;;;;;;;1.10;1.10;;;;;;;8.10;50.06;99718.84;4082706;28;20236;-55
2022/04/17 06:46:13;;;;;;;1.55;1.55;;;;;;;8.31;50.22;99710.53;4086449;28;20592;-53
2022/04/17 06:48:16;;;;;;;1.35;1.35;;;;;;;8.37;50.33;99715.16;4081418;28;20741;-54
2022/04/17 06:50:19;;;;;;;1.15;1.15;;;;;;;8.45;50.27;99714.97;4098821;28;20265;-54
2022/04/17 06:52:20;;;;;;;1.65;1.55;;;;;;;9.02;49.94;99720.69;4085013;29;20241;-53
2022/04/17 06:54:22;;;;;;;1.35;1.30;;;;;;;8.82;48.47;99708.94;4084728;29;20239;-55
2022/04/17 06:56:24;;;;;;;1.42;1.42;;;;;;;9.15;49.79;99704.28;4098633;28;20203;-53
2022/04/17 06:58:25;;;;;;;1.20;1.20;;;;;;;9.52;49.24;99714.50;4097094;28;20235;-55
2022/04/17 07:00:27;;;;;;;1.38;1.38;;;;;;;10.39;48.36;99707.41;4084740;29;20196;-53
2022/04/17 07:02:29;;;;;;;1.15;1.10;;;;;;;10.50;47.79;99706.72;4069347;29;20251;-54
2022/04/17 07:04:30;;;;;;;1.15;1.15;;;;;;;9.94;46.96;99692.91;4100088;28;20316;-54
2022/04/17 07:06:32;;;;;;;1.10;1.10;;;;;;;9.89;45.93;99700.09;4089672;29;20211;-54
2022/04/17 07:08:34;;;;;;;1.10;1.08;;;;;;;10.36;46.30;99700.50;4101328;28;20215;-53
2022/04/17 07:10:37;;;;;;;1.98;1.88;;;;;;;10.13;46.46;99685.69;4090959;29;20792;-52
2022/04/17 07:12:39;;;;;;;5.07;1.23;;;;;;;10.23;45.99;99689.66;4085178;28;20211;-53
2022/04/17 07:14:44;;;;;;;1.30;1.30;;;;;;;10.30;45.47;99692.34;4111156;28;20717;-57
2022/04/17 07:16:47;;;;;;;1.08;1.08;;;;;;;10.45;46.07;99693.72;4080517;28;20243;-55
2022/04/17 07:18:49;;;;;;;1.15;1.15;;;;;;;10.54;45.47;99695.13;4082645;29;20207;-54
2022/04/17 07:20:51;;;;;;;0.90;0.90;;;;;;;10.69;44.73;99692.91;4084151;29;20208;-54
2022/04/17 07:22:54;;;;;;;0.90;0.90;;;;;;;10.84;45.04;99691.50;4086275;29;20270;-53
2022/04/17 07:24:57;;;;;;;1.10;1.10;;;;;;;10.88;43.70;99692.75;4084397;28;20266;-54
2022/04/17 07:27:00;;;;;;;1.05;1.05;;;;;;;10.75;43.11;99691.19;4115918;28;20214;-54
2022/04/17 07:29:03;;;;;;;0.82;0.82;;;;;;;10.95;43.34;99682.59;4089125;28;20677;-53
2022/04/17 07:31:06;;;;;;;0.88;0.88;;;;;;;10.88;41.53;99684.53;4089224;28;20231;-51
2022/04/17 07:33:08;;;;;;;1.25;1.15;;;;;;;10.62;41.08;99681.16;4093880;28;20211;-52
2022/04/17 07:35:11;;;;;;;1.20;1.10;;;;;;;10.52;41.05;99683.56;4089358;29;20291;-53
2022/04/17 07:37:13;;;;;;;0.90;0.90;;;;;;;10.59;40.36;99675.28;4084318;29;20278;-51
2022/04/17 07:39:16;;;;;;;1.15;1.15;;;;;;;10.60;40.36;99663.28;4104189;28;20761;-52
2022/04/17 07:41:18;;;;;;;0.75;0.75;;;;;;;11.03;41.46;99667.78;4091997;29;20232;-53
2022/04/17 07:43:20;;;;;;;1.08;0.98;;;;;;;11.31;39.89;99663.47;4101773;28;20242;-51
2022/04/17 07:45:22;;;;;;;1.95;1.35;;;;;;;11.38;39.66;99661.50;4117476;28;20233;-53
2022/04/17 07:47:24;;;;;;;1.00;1.00;;;;;;;11.12;39.80;99664.50;4085279;29;20601;-52
2022/04/17 07:49:26;;;;;;;1.20;1.15;;;;;;;11.16;40.30;99663.00;4089478;28;20211;-51
2022/04/17 07:51:28;;;;;;;0.80;0.80;;;;;;;11.45;39.28;99654.03;4088243;28;20226;-53
2022/04/17 07:53:31;;;;;;;0.90;0.90;;;;;;;11.43;38.85;99650.69;4088641;28;20694;-51
2022/04/17 07:55:34;;;;;;;0.70;0.70;;;;;;;11.65;39.12;99651.94;4094996;29;20769;-51
2022/04/17 07:59:55;;;;;;;0.80;0.77;;;;;;;11.95;38.43;99652.84;4089480;29;20207;-53
2022/04/17 08:02:11;;;;;;;0.65;0.65;;;;;;;11.90;38.21;99644.44;4093904;28;20239;-54
2022/04/17 08:04:14;;;;;;;1.05;0.95;;;;;;;11.63;38.46;99645.84;4096293;28;20238;-52
2022/04/17 08:06:20;;;;;;;1.10;1.10;;;;;;;11.92;38.03;99636.81;4088240;28;20246;-52
2022/04/17 08:08:22;;;;;;;0.95;0.95;;;;;;;12.27;38.41;99637.81;4089077;28;20298;-53
2022/04/17 08:10:24;;;;;;;0.65;0.65;;;;;;;12.52;38.32;99644.00;4089095;28;20239;-51
2022/04/17 08:12:26;;;;;;;0.73;0.73;;;;;;;12.37;37.54;99638.06;4095981;29;20215;-52
2022/04/17 08:14:27;;;;;;;1.15;0.90;;;;;;;12.22;36.84;99634.94;4121798;28;20218;-52
2022/04/17 08:16:29;;;;;;;0.68;0.68;;;;;;;12.47;37.64;99641.09;4123191;28;20207;-52
2022/04/17 08:18:34;;;;;;;1.30;1.20;;;;;;;12.40;37.12;99634.88;4087764;29;20330;-51
2022/04/17 08:20:39;;;;;;;1.98;0.80;;;;;;;12.07;37.35;99634.53;4102370;28;20262;-53
2022/04/17 08:22:41;;;;;;;0.82;0.82;;;;;;;12.16;37.92;99638.59;4116677;28;20210;-52
2022/04/17 08:24:43;;;;;;;0.90;0.90;;;;;;;12.01;37.08;99640.94;4093117;29;20263;-52
2022/04/17 08:26:45;;;;;;;0.80;0.80;;;;;;;12.32;36.79;99631.63;4094410;29;20657;-50
2022/04/17 08:28:46;;;;;;;0.80;0.80;;;;;;;12.55;37.95;99635.28;4093437;28;20211;-52
2022/04/17 08:30:49;;;;;;;0.77;0.77;;;;;;;13.07;37.17;99619.81;4107219;28;20226;-52
2022/04/17 08:32:51;;;;;;;1.08;1.00;;;;;;;13.01;35.97;99621.63;4091043;29;20251;-49
2022/04/17 08:34:52;;;;;;;1.85;0.98;;;;;;;13.32;36.52;99624.03;4090552;29;20282;-51
2022/04/17 08:36:54;;;;;;;1.45;1.27;;;;;;;13.42;36.13;99617.88;4091210;29;20270;-50
2022/04/17 08:38:56;;;;;;;0.70;0.70;;;;;;;13.41;34.86;99628.06;4086675;28;20216;-50
2022/04/17 08:40:58;;;;;;;0.68;0.68;;;;;;;12.99;35.03;99612.78;4103659;28;20259;-50
2022/04/17 08:43:00;;;;;;;1.05;1.02;;;;;;;13.12;35.71;99618.06;4089492;29;20215;-52
2022/04/17 08:45:02;;;;;;;0.80;0.80;;;;;;;13.19;34.86;99613.28;4090832;29;20586;-50
2022/04/17 08:47:03;;;;;;;0.65;0.65;;;;;;;13.48;35.22;99606.75;4089249;29;20733;-49
2022/04/17 08:49:07;;;;;;;1.08;0.85;;;;;;;13.00;35.27;99602.63;4089256;28;20212;-51
2022/04/17 08:51:09;;;;;;;0.90;0.90;;;;;;;13.28;35.76;99598.06;4088019;29;20701;-50
2022/04/17 08:53:15;;;;;;;0.88;0.88;;;;;;;13.14;34.51;99585.66;4080457;29;20273;-50
2022/04/17 08:55:23;;;;;;;0.80;0.80;;;;;;;12.97;35.70;99594.88;4119398;28;20233;-52
2022/04/17 08:57:25;;;;;;;0.80;0.80;;;;;;;13.59;35.27;99597.66;4088965;29;20222;-51
2022/04/17 08:59:27;;;;;;;0.80;0.80;;;;;;;12.89;35.07;99585.03;4092603;29;20250;-50
2022/04/17 09:01:29;;;;;;;0.80;0.80;;;;;;;13.30;35.21;99584.91;4089552;28;20240;-50
2022/04/17 09:03:30;;;;;;;0.73;0.73;;;;;;;13.79;35.50;99581.56;4079400;29;20212;-50
2022/04/17 09:05:33;;;;;;;0.70;0.70;;;;;;;13.59;36.01;99592.16;4092065;29;20228;-50
2022/04/17 09:07:42;;;;;;;0.82;0.82;;;;;;;13.77;34.51;99580.97;4104844;28;20206;-51
2022/04/17 09:09:51;;;;;;;0.75;0.75;;;;;;;13.78;34.64;99577.13;4104261;28;20565;-52
2022/04/17 09:11:54;;;;;;;1.45;1.35;;;;;;;14.34;34.63;99588.16;4087324;28;20638;-52
2022/04/17 09:13:58;;;;;;;0.80;0.80;;;;;;;14.48;34.65;99592.28;4087708;28;20633;-50
2022/04/17 09:16:03;;;;;;;0.88;0.88;;;;;;;14.31;34.32;99585.06;4087297;29;20222;-52
2022/04/17 09:18:07;;;;;;;0.77;0.77;;;;;;;14.81;33.51;99581.25;4118038;28;20272;-51
2022/04/17 09:20:22;;;;;;;1.17;1.10;;;;;;;14.45;34.21;99587.28;4090087;28;20254;-50
2022/04/17 09:22:23;;;;;;;0.80;0.80;;;;;;;14.05;34.33;99586.50;4087814;29;20214;-50
2022/04/17 09:24:25;;;;;;;1.13;0.65;;;;;;;14.31;34.47;99583.13;4120033;28;20226;-50
2022/04/17 09:26:27;;;;;;;0.80;0.80;;;;;;;14.53;35.34;99580.50;4088400;29;20200;-52
2022/04/17 09:28:36;;;;;;;0.82;0.82;;;;;;;13.90;34.87;99577.94;4090975;29;20574;-49
2022/04/17 09:30:42;;;;;;;0.60;0.60;;;;;;;14.52;34.75;99576.94;4102723;28;20235;-50
2022/04/17 09:32:44;;;;;;;0.90;0.70;;;;;;;14.28;35.46;99580.91;4087180;28;20200;-51
2022/04/17 09:34:49;;;;;;;0.63;0.63;;;;;;;14.04;34.59;99587.56;4088543;28;20418;-50
2022/04/17 09:36:58;;;;;;;0.75;0.75;;;;;;;14.45;33.77;99576.25;4090481;28;20215;-50
2022/04/17 09:39:14;;;;;;;0.88;0.88;;;;;;;14.56;35.55;99574.50;4105233;28;20218;-49
2022/04/17 09:41:17;;;;;;;0.75;0.73;;;;;;;15.03;35.72;99567.56;4118956;28;20301;-51
2022/04/17 09:43:19;;;;;;;0.70;0.70;;;;;;;15.06;35.38;99575.31;4094054;28;20298;-50
2022/04/17 09:45:21;;;;;;;0.70;0.70;;;;;;;15.18;34.62;99565.00;4119245;28;20260;-50
2022/04/17 09:47:28;;;;;;;0.57;0.57;;;;;;;15.73;35.66;99563.88;4092883;28;20674;-51
2022/04/17 09:49:49;;;;;;;1.70;0.85;;;;;;;15.84;35.07;99565.63;4088952;28;20221;-52
2022/04/17 09:52:08;;;;;;;1.00;0.90;;;;;;;15.83;35.38;99563.97;4121186;28;20250;-50
2022/04/17 09:54:14;;;;;;;0.82;0.82;;;;;;;15.64;35.79;99570.91;4089408;28;20215;-51
2022/04/17 09:56:16;;;;;;;0.70;0.60;;;;;;;15.17;35.21;99564.16;4121567;28;20215;-50